Aviation Digital Data Service (ADDS)

Output produced by METARs form (1114 UTC 19 January 2019)
found at http://www.aviationweather.gov/metar/data/
 
KBDR 191052Z AUTO 00000KT 7SM CLR M03/M04 A3022 RMK AO2 SLP233 I1001 T10281044
KBDR 191000Z 1910/2006 33006KT P6SM SCT200 
     FM191400 04007KT P6SM SCT025 BKN120 
     FM192000 08010KT P6SM SCT020 OVC040 
     FM192300 08014KT 5SM -SN BR SCT009 OVC015 
     FM200200 08016KT 1 1/2SM -SN BR OVC009 
     FM200500 07016G25KT 1SM FZRASNPL BR OVC009
       
KDXR 191053Z AUTO 00000KT 8SM FEW044 M07/M08 A3022 RMK AO2 SLP238 I1000 T10671083
KGON 191056Z AUTO 35003KT 10SM CLR M04/M05 A3020 RMK AO2 SLP227 T10391050
KGON 191000Z 1910/2006 33005KT P6SM FEW040 FEW150 
     FM191400 03007KT P6SM SCT120 
     FM191600 05008KT P6SM SCT025 BKN150 
     FM192300 08012KT P6SM -SN OVC025 
     FM200200 08014G22KT 1 1/2SM -SN BR OVC009 
     FM200500 08014G24KT 1SM FZRASNPL BR OVC009
       
KHFD 191053Z 34004KT 10SM CLR M01/M07 A3022 RMK AO2 SLP235 T10061072
KMMK 191053Z AUTO 00000KT 10SM CLR M03/M07 A3022 RMK AO2 SLP235 T10331072
KHVN 191053Z 00000KT 10SM CLR M04/M07 A3022 RMK AO2 SLP233 T10441072
KOXC 191051Z AUTO 36005KT 10SM CLR M03/M07 A3019 RMK AO2 SLP246 T10331067 FZRANO
KIJD 191052Z AUTO 00000KT 10SM OVC039 M04/M05 A3020 RMK AO2 SLP230 T10441050
KBDL 191051Z 31003KT 10SM SCT038 SCT250 M03/M07 A3021 RMK AO2 SLP232 T10281067
KBDL 190943Z 1910/2012 32005KT P6SM SCT250 
     FM191700 02005KT P6SM SCT120 
     FM192100 07005KT P6SM OVC045 
     FM192300 08007KT 4SM -SN OVC035 
     FM200200 05007KT 1/2SM SN OVC015 
     FM200700 04010G17KT 1SM +PL OVC015